createdAt,value
2019-03-17T00:00:47.098Z,96361.48
2019-03-17T00:03:19.409Z,96372.08
2019-03-17T00:05:56.567Z,96366.72
2019-03-17T00:08:27.690Z,96363.13
2019-03-17T00:10:58.986Z,96356.94
2019-03-17T00:13:37.068Z,96358.80
2019-03-17T00:16:07.435Z,96349.27
2019-03-17T00:18:47.443Z,96341.80
2019-03-17T00:21:24.691Z,96339.83
2019-03-17T00:23:58.446Z,96349.06
2019-03-17T00:26:30.138Z,96348.63
2019-03-17T00:29:01.205Z,96341.58
2019-03-17T00:31:32.610Z,96335.50
2019-03-17T00:34:04.087Z,96334.73
2019-03-17T00:36:41.940Z,96332.53
2019-03-17T00:39:12.991Z,96330.50
2019-03-17T00:41:44.084Z,96331.57
2019-03-17T00:44:15.872Z,96325.16
2019-03-17T00:46:47.827Z,96324.23
2019-03-17T00:49:32.564Z,96321.79
2019-03-17T00:52:04.214Z,96324.88
2019-03-17T00:54:35.189Z,96317.41
2019-03-17T00:57:10.023Z,96311.76
2019-03-17T00:59:46.334Z,96306.25
2019-03-17T01:02:23.269Z,96305.97
2019-03-17T01:04:57.030Z,96294.99
2019-03-17T01:07:28.201Z,96292.58
2019-03-17T01:10:05.479Z,96298.91
2019-03-17T01:12:38.505Z,96293.31
2019-03-17T01:15:10.747Z,96290.10
2019-03-17T01:17:43.342Z,96290.20
2019-03-17T01:20:15.709Z,96279.58
2019-03-17T01:22:47.022Z,96273.86
2019-03-17T01:25:25.765Z,96273.20
2019-03-17T01:27:57.302Z,96273.70
2019-03-17T01:30:28.430Z,96271.52
2019-03-17T01:33:45.449Z,96269.31
2019-03-17T01:36:16.416Z,96268.27
2019-03-17T01:38:47.119Z,96261.28
2019-03-17T01:41:18.407Z,96256.81
2019-03-17T01:43:53.990Z,96252.57
2019-03-17T01:46:25.615Z,96244.03
2019-03-17T01:48:59.754Z,96246.41
2019-03-17T01:51:34.899Z,96239.57
2019-03-17T01:54:07.241Z,96239.69
2019-03-17T01:56:40.220Z,96242.26
2019-03-17T01:59:13.634Z,96236.05
2019-03-17T03:01:53.233Z,96174.97
2019-03-17T03:04:25.717Z,96161.38
2019-03-17T03:06:56.830Z,96164.55
2019-03-17T03:09:28.376Z,96160.52
2019-03-17T03:11:59.089Z,96157.60
2019-03-17T03:14:30.593Z,96162.23
2019-03-17T03:17:06.147Z,96161.15
2019-03-17T03:19:36.874Z,96167.04
2019-03-17T03:22:08.614Z,96163.81
2019-03-17T03:24:39.769Z,96167.31
2019-03-17T03:27:11.779Z,96165.42
2019-03-17T03:29:43.283Z,96157.63
2019-03-17T03:32:14.643Z,96156.10
2019-03-17T03:34:46.905Z,96161.53
2019-03-17T03:37:29.518Z,96156.69
2019-03-17T03:40:01.416Z,96144.60
2019-03-17T03:42:32.309Z,96150.68
2019-03-17T03:45:03.353Z,96157.41
2019-03-17T03:47:34.992Z,96157.39
2019-03-17T03:50:06.280Z,96148.06
2019-03-17T03:52:38.008Z,96160.52
2019-03-17T03:55:09.057Z,96150.68
2019-03-17T03:57:40.079Z,96150.70
2019-03-17T04:00:12.004Z,96150.75
2019-03-17T04:02:43.433Z,96145.69
2019-03-17T04:05:14.424Z,96153.30
2019-03-17T04:07:45.629Z,96153.64
2019-03-17T04:10:16.725Z,96155.69
2019-03-17T04:12:48.024Z,96148.00
2019-03-17T04:15:19.741Z,96157.42
2019-03-17T04:17:51.091Z,96142.87
2019-03-17T04:20:22.516Z,96148.41
2019-03-17T04:22:53.902Z,96141.91
2019-03-17T04:25:25.658Z,96141.19
2019-03-17T04:27:56.658Z,96145.95
2019-03-17T04:30:28.325Z,96139.23
2019-03-17T04:32:58.690Z,96134.36
2019-03-17T04:39:25.436Z,96141.41
2019-03-17T04:41:57.444Z,96137.27
2019-03-17T04:44:29.197Z,96128.70
2019-03-17T04:47:01.180Z,96138.16
2019-03-17T04:49:33.289Z,96133.83
2019-03-17T04:52:04.357Z,96130.19
2019-03-17T04:54:35.672Z,96128.98
2019-03-17T04:57:06.392Z,96132.48
2019-03-17T04:59:37.109Z,96134.51
2019-03-17T05:02:08.229Z,96128.66
2019-03-17T05:04:39.213Z,96125.02
2019-03-17T05:07:10.145Z,96124.09
2019-03-17T05:09:41.531Z,96130.27
2019-03-17T05:12:12.620Z,96136.69
2019-03-17T05:14:44.529Z,96133.95
2019-03-17T05:17:16.237Z,96134.00
2019-03-17T05:19:47.197Z,96130.62
2019-03-17T05:22:18.851Z,96127.95
2019-03-17T05:24:50.198Z,96119.61
2019-03-17T05:27:21.889Z,96120.21
2019-03-17T05:29:53.306Z,96123.13
2019-03-17T05:32:24.345Z,96114.39
2019-03-17T05:34:55.813Z,96111.82
2019-03-17T05:37:27.162Z,96112.29
2019-03-17T05:39:58.807Z,96110.61
2019-03-17T05:42:30.519Z,96123.83
2019-03-17T05:45:01.918Z,96122.13
2019-03-17T05:47:33.669Z,96115.83
2019-03-17T05:50:05.616Z,96116.38
2019-03-17T05:52:37.245Z,96103.96
2019-03-17T05:55:08.639Z,96113.89
2019-03-17T05:57:40.566Z,96105.73
2019-03-17T06:00:13.291Z,96110.69
2019-03-17T06:02:44.873Z,96113.44
2019-03-17T06:05:16.630Z,96107.48
2019-03-17T06:07:47.796Z,96106.17
2019-03-17T06:10:19.678Z,96096.81
2019-03-17T06:12:51.352Z,96102.38
2019-03-17T06:15:22.592Z,96095.62
2019-03-17T06:17:54.075Z,96104.83
2019-03-17T06:20:24.987Z,96098.73
2019-03-17T06:22:56.615Z,96097.47
2019-03-17T06:25:28.443Z,96109.05
2019-03-17T06:28:00.017Z,96103.25
2019-03-17T06:30:31.104Z,96104.86
2019-03-17T06:33:03.754Z,96101.31
2019-03-17T06:35:34.512Z,96106.13
2019-03-17T06:38:05.648Z,96103.75
2019-03-17T06:40:37.423Z,96111.55
2019-03-17T06:43:09.036Z,96105.66
2019-03-17T06:45:40.686Z,96110.33
2019-03-17T06:48:11.917Z,96114.31
2019-03-17T06:50:43.523Z,96120.38
2019-03-17T06:53:15.996Z,96124.05
2019-03-17T06:55:47.346Z,96116.79
2019-03-17T06:58:18.147Z,96107.66
2019-03-17T07:00:49.691Z,96100.73
2019-03-17T07:03:21.501Z,96098.16
2019-03-17T07:05:51.857Z,96095.38
2019-03-17T07:08:22.989Z,96095.67
2019-03-17T07:10:59.279Z,96101.17
2019-03-17T07:13:30.272Z,96091.34
2019-03-17T07:16:01.601Z,96086.41
2019-03-17T07:18:33.108Z,96081.34
2019-03-17T07:21:04.397Z,96081.19
2019-03-17T07:23:36.456Z,96085.53
2019-03-17T07:26:07.663Z,96083.06
2019-03-17T07:28:39.054Z,96087.69
2019-03-17T07:31:10.206Z,96090.63
2019-03-17T07:33:41.574Z,96092.70
2019-03-17T07:36:12.570Z,96086.39
2019-03-17T07:38:43.854Z,96082.39
2019-03-17T07:41:15.626Z,96073.04
2019-03-17T07:43:46.598Z,96072.68
2019-03-17T07:46:17.573Z,96075.94
2019-03-17T07:48:48.983Z,96074.64
2019-03-17T07:51:20.332Z,96079.93
2019-03-17T07:53:52.004Z,96078.20
2019-03-17T07:56:23.203Z,96072.14
2019-03-17T07:58:55.020Z,96082.15
2019-03-17T08:01:25.963Z,96073.20
2019-03-17T08:03:56.956Z,96072.32
2019-03-17T08:06:28.570Z,96081.23
2019-03-17T08:09:00.447Z,96079.55
2019-03-17T08:11:31.801Z,96083.05
2019-03-17T08:14:02.464Z,96082.38
2019-03-17T08:16:33.469Z,96085.02
2019-03-17T08:19:04.169Z,96082.31
2019-03-17T08:21:36.262Z,96060.55
2019-03-17T08:24:06.891Z,96060.32
2019-03-17T08:26:37.603Z,96067.77
2019-03-17T08:29:09.517Z,96074.46
2019-03-17T08:31:42.369Z,96069.81
2019-03-17T08:34:13.009Z,96066.64
2019-03-17T08:36:44.438Z,96074.41
2019-03-17T08:39:15.478Z,96067.09
2019-03-17T08:41:46.792Z,96066.26
2019-03-17T08:44:22.214Z,96062.19
2019-03-17T08:46:54.211Z,96063.75
2019-03-17T08:49:25.890Z,96060.17
2019-03-17T08:52:09.100Z,96064.00
2019-03-17T08:54:39.801Z,96061.56
2019-03-17T08:57:11.189Z,96064.84
2019-03-17T08:59:59.546Z,96060.59
2019-03-17T09:02:30.588Z,96056.50
2019-03-17T09:05:01.622Z,96057.44
2019-03-17T09:07:42.570Z,96065.25
2019-03-17T09:10:14.434Z,96049.97
2019-03-17T09:12:45.171Z,96055.16
2019-03-17T09:15:17.259Z,96053.75
2019-03-17T09:17:48.218Z,96054.48
2019-03-17T09:20:19.918Z,96060.73
2019-03-17T09:22:50.986Z,96051.55
2019-03-17T09:25:22.843Z,96050.59
2019-03-17T09:27:54.994Z,96045.39
2019-03-17T09:30:28.826Z,96042.81
2019-03-17T09:32:59.685Z,96043.38
2019-03-17T09:35:31.684Z,96043.48
2019-03-17T09:38:03.606Z,96043.16
2019-03-17T09:40:41.198Z,96038.67
2019-03-17T09:43:13.856Z,96040.00
2019-03-17T09:45:45.472Z,96032.08
2019-03-17T09:48:16.552Z,96031.80
2019-03-17T09:50:46.948Z,96029.18
2019-03-17T09:53:17.931Z,96020.78
2019-03-17T09:55:49.268Z,96014.89
2019-03-17T09:58:20.325Z,96020.78
2019-03-17T10:00:51.366Z,96011.10
2019-03-17T10:03:25.115Z,96006.94
2019-03-17T10:05:56.355Z,96016.60
2019-03-17T10:08:28.023Z,96018.33
2019-03-17T10:10:58.906Z,96024.95
2019-03-17T10:13:40.998Z,96019.78
2019-03-17T10:16:12.576Z,96029.54
2019-03-17T10:18:44.842Z,96028.03
2019-03-17T10:21:18.323Z,96017.78
2019-03-17T10:23:52.876Z,96003.21
2019-03-17T10:26:25.983Z,95999.31
2019-03-17T10:29:00.678Z,96015.00
2019-03-17T10:31:58.604Z,96014.11
2019-03-17T10:34:38.625Z,96023.77
2019-03-17T10:37:22.153Z,96019.55
2019-03-17T10:40:13.933Z,96024.55
2019-03-17T10:42:45.679Z,96025.11
2019-03-17T10:45:16.877Z,96018.05
2019-03-17T10:47:48.218Z,96012.88
2019-03-17T10:50:19.143Z,96004.30
2019-03-17T10:52:50.766Z,96034.78
2019-03-17T10:55:22.234Z,96024.62
2019-03-17T10:58:01.190Z,96015.88
2019-03-17T11:00:32.460Z,96023.18
2019-03-17T11:03:04.032Z,96009.80
2019-03-17T11:06:15.137Z,96005.26
2019-03-17T11:09:25.281Z,96005.39
2019-03-17T11:11:51.583Z,96001.28
2019-03-17T11:14:22.903Z,95985.98
2019-03-17T11:16:55.029Z,95988.30
2019-03-17T11:19:26.760Z,95986.56
2019-03-17T11:22:03.021Z,95983.64
2019-03-17T11:24:34.440Z,95988.80
2019-03-17T11:27:05.475Z,95970.20
2019-03-17T11:29:36.534Z,95985.47
2019-03-17T11:32:07.558Z,95980.58
2019-03-17T11:34:42.246Z,95977.42
2019-03-17T11:37:13.514Z,95977.06
2019-03-17T11:39:45.477Z,95969.13
2019-03-17T11:42:16.529Z,95962.84
2019-03-17T11:44:49.071Z,95964.52
2019-03-17T11:47:20.588Z,95955.76
2019-03-17T11:49:51.339Z,95970.39
2019-03-17T11:52:22.784Z,95953.61
2019-03-17T11:54:54.404Z,95966.94
2019-03-17T11:57:25.607Z,95964.67
2019-03-17T11:59:56.789Z,95949.83
2019-03-17T12:02:33.146Z,95958.84
2019-03-17T12:05:06.397Z,95959.43
2019-03-17T12:07:41.475Z,95962.72
2019-03-17T12:10:22.219Z,95965.64
2019-03-17T12:12:52.953Z,95949.88
2019-03-17T12:15:29.338Z,95952.45
2019-03-17T12:18:00.384Z,95951.16
2019-03-17T12:20:34.733Z,95946.89
2019-03-17T12:23:06.560Z,95949.48
2019-03-17T12:25:37.412Z,95941.48
2019-03-17T12:28:09.016Z,95949.66
2019-03-17T12:31:17.137Z,95953.02
2019-03-17T12:33:50.676Z,95951.17
2019-03-17T12:36:21.309Z,95951.64
2019-03-17T12:38:52.962Z,95943.92
2019-03-17T12:41:24.289Z,95942.38
2019-03-17T12:43:55.554Z,95950.22
2019-03-17T12:46:40.488Z,95951.98
2019-03-17T12:49:10.866Z,95945.67
2019-03-17T12:51:42.910Z,95945.92
2019-03-17T12:54:14.709Z,95933.81
2019-03-17T12:56:45.939Z,95935.11
2019-03-17T12:59:16.693Z,95927.53
2019-03-17T13:01:54.753Z,95923.15
2019-03-17T13:04:26.307Z,95925.39
2019-03-17T13:06:58.352Z,95925.00
2019-03-17T13:09:35.401Z,95931.70
2019-03-17T13:12:08.829Z,95924.78
2019-03-17T13:14:46.794Z,95929.68
2019-03-17T13:17:22.079Z,95929.77
2019-03-17T13:19:59.726Z,95933.40
2019-03-17T13:22:31.346Z,95933.94
2019-03-17T13:25:02.442Z,95926.03
2019-03-17T13:27:37.313Z,95930.73
2019-03-17T13:30:11.901Z,95925.91
2019-03-17T13:32:43.202Z,95928.95
2019-03-17T13:35:15.851Z,95932.29
2019-03-17T13:37:47.271Z,95935.05
2019-03-17T13:40:28.943Z,95933.98
2019-03-17T13:42:51.822Z,95931.19
2019-03-17T13:45:22.138Z,95934.38
2019-03-17T13:47:59.247Z,95937.20
2019-03-17T13:50:30.550Z,95933.26
2019-03-17T13:53:00.938Z,95932.36
2019-03-17T13:55:38.928Z,95935.16
2019-03-17T13:58:11.105Z,95926.26
2019-03-17T14:00:45.142Z,95934.61
2019-03-17T14:03:16.179Z,95934.80
2019-03-17T14:05:47.992Z,95942.38
2019-03-17T14:08:19.332Z,95944.23
2019-03-17T14:10:50.649Z,95955.08
2019-03-17T14:13:28.764Z,95953.56
2019-03-17T14:16:00.091Z,95961.44
2019-03-17T14:18:31.076Z,95960.87
2019-03-17T14:21:06.340Z,95965.27
2019-03-17T14:23:41.368Z,95978.52
2019-03-17T14:26:25.748Z,95987.11
2019-03-17T14:28:56.756Z,95983.77
2019-03-17T14:31:33.738Z,95983.27
2019-03-17T14:34:06.735Z,95979.27
2019-03-17T14:36:38.404Z,95994.16
2019-03-17T14:39:28.569Z,95995.34
2019-03-17T14:42:00.297Z,95996.72
2019-03-17T14:44:30.908Z,95996.79
2019-03-17T14:47:08.941Z,95996.38
2019-03-17T14:49:40.314Z,95986.91
2019-03-17T14:52:16.061Z,95995.78
2019-03-17T14:54:46.362Z,96000.81
2019-03-17T14:57:17.432Z,96009.69
2019-03-17T14:59:56.745Z,96006.14
2019-03-17T15:02:27.600Z,96013.93
2019-03-17T15:04:58.652Z,96018.47
2019-03-17T15:08:03.574Z,96017.20
2019-03-17T15:10:34.254Z,96018.71
2019-03-17T15:13:05.245Z,96026.52
2019-03-17T15:15:49.279Z,96048.86
2019-03-17T15:18:20.329Z,96043.56
2019-03-17T15:20:51.415Z,96042.56
2019-03-17T15:23:23.410Z,96049.83
2019-03-17T15:25:55.111Z,96067.77
2019-03-17T15:28:26.566Z,96084.16
2019-03-17T15:31:11.058Z,96094.72
2019-03-17T15:33:31.589Z,96108.95
2019-03-17T15:36:02.991Z,96120.81
2019-03-17T15:38:33.734Z,96131.96
2019-03-17T15:41:17.676Z,96131.05
2019-03-17T15:43:39.313Z,96137.77
2019-03-17T15:46:10.355Z,96145.88
2019-03-17T15:48:42.038Z,96152.37
2019-03-17T15:51:29.482Z,96159.76
2019-03-17T15:54:00.822Z,96171.53
2019-03-17T15:56:32.559Z,96193.89
2019-03-17T15:59:03.272Z,96208.80
2019-03-17T16:01:33.904Z,96216.00
2019-03-17T16:04:05.495Z,96247.66
2019-03-17T16:06:37.248Z,96262.10
2019-03-17T16:09:09.967Z,96266.20
2019-03-17T16:11:41.247Z,96282.84
2019-03-17T16:14:12.984Z,96274.70
2019-03-17T16:16:44.528Z,96296.58
2019-03-17T16:19:19.189Z,96302.00
2019-03-17T16:21:49.817Z,96321.24
2019-03-17T16:24:21.090Z,96319.14
2019-03-17T16:26:52.364Z,96334.87
2019-03-17T16:29:24.079Z,96345.27
2019-03-17T16:31:55.427Z,96333.70
2019-03-17T16:34:26.763Z,96351.73
2019-03-17T16:36:58.412Z,96355.95
2019-03-17T16:39:41.765Z,96363.02
2019-03-17T16:42:12.063Z,96353.57
2019-03-17T16:45:02.947Z,96368.66
2019-03-17T16:47:40.087Z,96390.94
2019-03-17T16:50:24.717Z,96402.30
2019-03-17T16:53:17.465Z,96408.42
2019-03-17T16:56:02.823Z,96415.30
2019-03-17T16:58:39.063Z,96420.41
2019-03-17T17:01:10.457Z,96404.73
2019-03-17T17:03:41.521Z,96440.52
2019-03-17T17:06:31.809Z,96457.87
2019-03-17T17:09:12.653Z,96470.08
2019-03-17T17:11:55.783Z,96484.57
2019-03-17T17:14:38.079Z,96485.59
2019-03-17T17:17:29.310Z,96504.65
2019-03-17T17:20:00.721Z,96516.80
2019-03-17T17:22:32.475Z,96520.59
2019-03-17T17:25:03.660Z,96541.76
2019-03-17T17:27:35.183Z,96546.59
2019-03-17T17:30:06.462Z,96579.95
2019-03-17T17:32:37.790Z,96582.08
2019-03-17T17:35:08.625Z,96582.41
2019-03-17T17:37:39.907Z,96593.99
2019-03-17T17:40:12.964Z,96600.47
2019-03-17T17:42:43.373Z,96600.50
2019-03-17T17:45:15.979Z,96604.59
2019-03-17T17:47:47.043Z,96604.94
2019-03-17T17:50:18.563Z,96624.55
2019-03-17T17:52:48.867Z,96627.91
2019-03-17T17:55:19.919Z,96639.81
2019-03-17T17:57:53.351Z,96636.94
2019-03-17T18:00:25.446Z,96630.18
2019-03-17T18:02:58.760Z,96647.67
2019-03-17T18:05:29.640Z,96652.16
2019-03-17T18:08:06.029Z,96652.77
2019-03-17T18:10:39.964Z,96667.95
2019-03-17T18:13:11.924Z,96675.78
2019-03-17T18:15:42.893Z,96681.11
2019-03-17T18:18:13.601Z,96670.03
2019-03-17T18:20:45.088Z,96681.72
2019-03-17T18:23:18.105Z,96683.45
2019-03-17T18:25:57.700Z,96697.14
2019-03-17T18:28:28.836Z,96698.89
2019-03-17T18:31:01.712Z,96712.14
2019-03-17T18:33:42.900Z,96717.33
2019-03-17T18:36:31.852Z,96722.07
2019-03-17T18:39:03.278Z,96733.06
2019-03-17T18:41:58.581Z,96726.36
2019-03-17T18:44:29.942Z,96733.56
2019-03-17T18:47:00.920Z,96732.42
2019-03-17T18:49:32.045Z,96738.12
2019-03-17T18:52:03.444Z,96752.05
2019-03-17T18:54:34.925Z,96739.55
2019-03-17T18:57:06.822Z,96735.73
2019-03-17T18:59:38.189Z,96741.38
2019-03-17T19:02:18.056Z,96758.66
2019-03-17T19:04:49.783Z,96779.13
2019-03-17T19:07:21.269Z,96774.27
2019-03-17T19:09:55.156Z,96775.89
2019-03-17T19:12:26.225Z,96784.94
2019-03-17T19:15:01.486Z,96797.61
2019-03-17T19:17:32.457Z,96801.13
2019-03-17T19:20:04.173Z,96804.64
2019-03-17T19:22:34.970Z,96790.41
2019-03-17T19:25:11.723Z,96779.59
2019-03-17T19:27:46.434Z,96785.24
2019-03-17T19:30:19.116Z,96797.82
2019-03-17T19:32:54.645Z,96796.42
2019-03-17T19:35:35.021Z,96806.33
2019-03-17T19:38:09.868Z,96804.06
2019-03-17T19:40:44.242Z,96813.59
2019-03-17T19:43:28.765Z,96823.66
2019-03-17T19:46:00.745Z,96829.13
2019-03-17T19:48:33.083Z,96830.02
2019-03-17T19:51:08.425Z,96825.72
2019-03-17T19:53:40.820Z,96825.55
2019-03-17T19:56:12.336Z,96835.16
2019-03-17T19:58:46.043Z,96832.83
2019-03-17T20:01:27.118Z,96847.73
2019-03-17T20:04:07.204Z,96842.80
2019-03-17T20:06:38.674Z,96852.52
2019-03-17T20:09:26.765Z,96859.89
2019-03-17T20:12:00.078Z,96859.38
2019-03-17T20:14:32.872Z,96856.34
2019-03-17T20:17:05.254Z,96858.13
2019-03-17T20:19:38.091Z,96866.94
2019-03-17T20:22:13.645Z,96862.86
2019-03-17T20:24:47.855Z,96865.02
2019-03-17T20:27:22.047Z,96857.53
2019-03-17T20:29:53.689Z,96852.78
2019-03-17T20:32:28.441Z,96852.75
2019-03-17T20:35:03.710Z,96855.77
2019-03-17T20:37:35.317Z,96858.08
2019-03-17T20:40:14.510Z,96861.48
2019-03-17T20:42:55.170Z,96870.02
2019-03-17T20:45:28.985Z,96870.48
2019-03-17T20:48:01.465Z,96874.63
2019-03-17T20:50:48.096Z,96880.92
2019-03-17T20:53:20.805Z,96883.67
2019-03-17T20:55:52.296Z,96887.40
2019-03-17T20:58:30.410Z,96892.53
2019-03-17T21:01:01.661Z,96888.14
2019-03-17T21:03:34.099Z,96885.64
2019-03-17T21:06:15.639Z,96880.80
2019-03-17T21:08:51.150Z,96886.11
2019-03-17T21:11:23.565Z,96894.78
2019-03-17T21:13:58.539Z,96893.84
2019-03-17T21:16:32.814Z,96898.70
2019-03-17T21:19:03.932Z,96908.42
2019-03-17T21:21:35.721Z,96913.19
2019-03-17T21:24:06.064Z,96907.72
2019-03-17T21:26:37.856Z,96921.70
2019-03-17T21:29:09.504Z,96936.08
2019-03-17T21:31:40.965Z,96938.17
2019-03-17T21:34:14.203Z,96952.57
2019-03-17T21:36:47.958Z,96968.51
2019-03-17T21:39:19.649Z,96965.06
2019-03-17T21:41:55.334Z,96979.36
2019-03-17T21:44:32.528Z,96971.12
2019-03-17T21:47:03.574Z,96969.15
2019-03-17T21:49:34.745Z,96968.80
2019-03-17T21:52:18.428Z,96966.20
2019-03-17T21:54:49.686Z,96981.13
2019-03-17T21:57:23.759Z,96993.55
2019-03-17T21:59:56.037Z,96994.31
2019-03-17T22:02:28.585Z,97000.99
2019-03-17T22:04:59.722Z,97001.69
2019-03-17T22:07:31.848Z,96988.91
2019-03-17T22:10:03.587Z,96980.29
2019-03-17T22:12:36.974Z,96963.44
2019-03-17T22:15:10.059Z,96970.15
2019-03-17T22:17:41.268Z,96971.04
2019-03-17T22:20:18.439Z,96973.70
2019-03-17T22:22:51.668Z,96977.34
2019-03-17T22:25:24.528Z,96985.62
2019-03-17T22:28:07.767Z,96999.11
2019-03-17T22:30:32.282Z,96997.56
2019-03-17T22:33:04.819Z,97004.09
2019-03-17T22:35:36.091Z,97008.77
2019-03-17T22:38:09.841Z,97014.43
2019-03-17T22:40:43.971Z,97018.92
2019-03-17T22:43:16.044Z,97017.78
2019-03-17T22:45:47.687Z,97018.45
2019-03-17T22:48:18.786Z,97006.74
2019-03-17T22:50:52.483Z,96997.07
2019-03-17T22:53:23.575Z,96998.73
2019-03-17T22:55:54.482Z,96988.99
2019-03-17T22:58:27.186Z,96976.22
2019-03-17T23:01:05.978Z,96963.66
2019-03-17T23:03:57.825Z,96961.84
2019-03-17T23:06:31.262Z,96961.33
2019-03-17T23:09:03.035Z,96974.38
2019-03-17T23:11:34.287Z,96971.17
2019-03-17T23:14:05.743Z,96978.13
2019-03-17T23:16:43.511Z,96981.20
2019-03-17T23:19:15.459Z,96985.86
2019-03-17T23:21:47.250Z,96991.86
2019-03-17T23:24:32.109Z,96994.28
2019-03-17T23:27:03.545Z,96992.55
2019-03-17T23:29:35.047Z,96995.04
2019-03-17T23:32:06.528Z,96989.41
2019-03-17T23:34:38.257Z,96989.00
2019-03-17T23:37:09.695Z,96981.12
2019-03-17T23:39:40.674Z,96975.59
2019-03-17T23:42:16.934Z,96976.42
2019-03-17T23:44:52.414Z,96968.56
2019-03-17T23:47:24.098Z,96979.42
2019-03-17T23:49:55.425Z,96983.95
2019-03-17T23:52:27.744Z,96979.62
2019-03-17T23:54:59.327Z,96980.58
2019-03-17T23:57:33.331Z,96993.98
